createdAt,value
2024-02-19T00:01:14.231Z,11.60
2024-02-19T00:03:41.382Z,11.60
2024-02-19T00:06:08.577Z,11.60
2024-02-19T00:08:35.750Z,11.60
2024-02-19T00:11:02.876Z,11.60
2024-02-19T00:13:30.064Z,11.60
2024-02-19T00:15:57.421Z,11.60
2024-02-19T00:18:24.731Z,11.60
2024-02-19T00:20:52.365Z,11.60
2024-02-19T00:23:19.365Z,11.60
2024-02-19T00:25:46.464Z,11.50
2024-02-19T00:28:13.968Z,11.60
2024-02-19T00:30:41.220Z,11.50
2024-02-19T00:33:08.810Z,11.60
2024-02-19T00:35:35.922Z,11.60
2024-02-19T00:38:03.489Z,11.60
2024-02-19T00:40:30.487Z,11.60
2024-02-19T00:42:57.650Z,11.60
2024-02-19T00:45:25.338Z,11.50
2024-02-19T00:47:52.455Z,11.50
2024-02-19T00:50:19.892Z,11.50
2024-02-19T00:52:47.098Z,11.50
2024-02-19T00:55:14.188Z,11.50
2024-02-19T00:57:41.227Z,11.50
2024-02-19T01:00:09.425Z,11.50
2024-02-19T01:02:37.225Z,11.50
2024-02-19T01:05:05.363Z,11.50
2024-02-19T01:07:32.956Z,11.50
2024-02-19T01:10:00.200Z,11.50
2024-02-19T01:12:27.306Z,11.50
2024-02-19T01:14:54.359Z,11.50
2024-02-19T01:17:21.831Z,11.40
2024-02-19T01:19:48.975Z,11.50
2024-02-19T01:22:16.794Z,11.50
2024-02-19T01:24:43.999Z,11.50
2024-02-19T01:27:11.614Z,11.50
2024-02-19T01:29:38.892Z,11.50
2024-02-19T01:32:06.003Z,11.40
2024-02-19T01:34:33.286Z,11.50
2024-02-19T01:37:00.579Z,11.40
2024-02-19T01:39:27.907Z,11.40
2024-02-19T01:41:55.608Z,11.40
2024-02-19T01:44:22.944Z,11.40
2024-02-19T01:46:50.752Z,11.40
2024-02-19T01:49:18.590Z,11.40
2024-02-19T01:51:46.541Z,11.40
2024-02-19T01:54:15.658Z,11.40
2024-02-19T01:56:44.259Z,11.40
2024-02-19T01:59:12.172Z,11.40
2024-02-19T02:01:41.094Z,11.40
2024-02-19T02:04:09.605Z,11.40
2024-02-19T02:06:37.230Z,11.40
2024-02-19T02:09:05.082Z,11.40
2024-02-19T02:11:32.247Z,11.40
2024-02-19T02:13:59.310Z,11.40
2024-02-19T02:16:27.487Z,11.40
2024-02-19T02:18:55.512Z,11.30
2024-02-19T02:21:23.484Z,11.40
2024-02-19T02:23:50.819Z,11.40
2024-02-19T02:26:18.121Z,11.30
2024-02-19T02:28:45.217Z,11.40
2024-02-19T02:31:12.377Z,11.40
2024-02-19T02:33:39.776Z,11.40
2024-02-19T02:36:10.702Z,11.40
2024-02-19T02:38:37.758Z,11.40
2024-02-19T02:41:04.904Z,11.30
2024-02-19T02:43:32.051Z,11.40
2024-02-19T02:45:59.503Z,11.40
2024-02-19T02:48:26.652Z,11.30
2024-02-19T02:50:53.764Z,11.30
2024-02-19T02:53:23.312Z,11.40
2024-02-19T02:55:50.827Z,11.30
2024-02-19T02:58:18.010Z,11.30
2024-02-19T03:00:45.229Z,11.30
2024-02-19T03:03:12.732Z,11.30
2024-02-19T03:05:40.318Z,11.30
2024-02-19T03:08:08.415Z,11.30
2024-02-19T03:10:36.150Z,11.30
2024-02-19T03:13:04.280Z,11.30
2024-02-19T03:15:31.444Z,11.30
2024-02-19T03:17:58.517Z,11.30
2024-02-19T03:20:26.060Z,11.30
2024-02-19T03:22:54.529Z,11.30
2024-02-19T03:25:21.625Z,11.30
2024-02-19T03:27:50.289Z,11.30
2024-02-19T03:30:18.307Z,11.30
2024-02-19T03:32:45.841Z,11.30
2024-02-19T03:35:13.648Z,11.30
2024-02-19T03:37:40.700Z,11.30
2024-02-19T03:40:10.241Z,11.30
2024-02-19T03:42:37.674Z,11.30
2024-02-19T03:45:06.076Z,11.30
2024-02-19T03:47:33.606Z,11.30
2024-02-19T03:50:00.860Z,11.30
2024-02-19T03:52:28.294Z,11.30
2024-02-19T03:54:55.961Z,11.30
2024-02-19T03:57:23.952Z,11.30
2024-02-19T03:59:51.238Z,11.30
2024-02-19T04:02:19.309Z,11.30
2024-02-19T04:04:46.933Z,11.30
2024-02-19T04:07:14.154Z,11.30
2024-02-19T04:09:41.431Z,11.30
2024-02-19T04:12:09.647Z,11.30
2024-02-19T04:14:40.025Z,11.30
2024-02-19T04:17:07.381Z,11.30
2024-02-19T04:19:34.550Z,11.30
2024-02-19T04:22:01.732Z,11.30
2024-02-19T04:24:29.030Z,11.30
2024-02-19T04:26:56.086Z,11.30
2024-02-19T04:29:23.701Z,11.30
2024-02-19T04:31:50.897Z,11.30
2024-02-19T04:34:18.152Z,11.30
2024-02-19T04:36:45.465Z,11.30
2024-02-19T04:39:12.533Z,11.30
2024-02-19T04:41:39.849Z,11.30
2024-02-19T04:44:07.400Z,11.30
2024-02-19T04:46:35.527Z,11.30
2024-02-19T04:49:02.833Z,11.30
2024-02-19T04:51:30.134Z,11.30
2024-02-19T04:53:57.170Z,11.30
2024-02-19T04:56:24.336Z,11.30
2024-02-19T04:58:51.278Z,11.30
2024-02-19T05:01:18.478Z,11.30
2024-02-19T05:03:45.733Z,11.30
2024-02-19T05:06:13.216Z,11.30
2024-02-19T05:08:40.215Z,11.30
2024-02-19T05:11:08.281Z,11.30
2024-02-19T05:13:38.481Z,11.30
2024-02-19T05:16:07.901Z,11.30
2024-02-19T05:18:35.210Z,11.30
2024-02-19T05:21:03.955Z,11.30
2024-02-19T05:23:32.137Z,11.30
2024-02-19T05:25:59.539Z,11.30
2024-02-19T05:28:26.635Z,11.30
2024-02-19T05:30:54.120Z,11.30
2024-02-19T05:33:21.437Z,11.30
2024-02-19T05:35:48.701Z,11.30
2024-02-19T05:38:15.794Z,11.30
2024-02-19T05:40:42.848Z,11.30
2024-02-19T05:43:09.945Z,11.30
2024-02-19T05:45:37.252Z,11.30
2024-02-19T05:48:04.882Z,11.30
2024-02-19T05:50:33.217Z,11.30
2024-02-19T05:53:00.635Z,11.30
2024-02-19T05:55:28.885Z,11.30
2024-02-19T05:57:56.150Z,11.30
2024-02-19T06:00:23.255Z,11.30
2024-02-19T06:02:50.446Z,11.30
2024-02-19T06:05:17.733Z,11.30
2024-02-19T06:07:45.376Z,11.30
2024-02-19T06:10:12.888Z,11.30
2024-02-19T06:12:40.723Z,11.30
2024-02-19T06:15:08.206Z,11.30
2024-02-19T06:17:35.520Z,11.30
2024-02-19T06:20:03.129Z,11.30
2024-02-19T06:22:30.291Z,11.20
2024-02-19T06:24:57.379Z,11.30
2024-02-19T06:27:24.774Z,11.30
2024-02-19T06:29:51.780Z,11.30
2024-02-19T06:32:18.985Z,11.20
2024-02-19T06:34:46.205Z,11.30
2024-02-19T06:37:13.850Z,11.20
2024-02-19T06:39:42.515Z,11.20
2024-02-19T06:42:09.552Z,11.20
2024-02-19T06:44:36.621Z,11.20
2024-02-19T06:47:03.782Z,11.30
2024-02-19T06:49:30.880Z,11.20
2024-02-19T06:51:58.403Z,11.20
2024-02-19T06:54:29.333Z,11.30
2024-02-19T06:56:58.286Z,11.20
2024-02-19T06:59:25.265Z,11.20
2024-02-19T07:01:52.564Z,11.20
2024-02-19T07:04:20.749Z,11.20
2024-02-19T07:06:48.363Z,11.20
2024-02-19T07:09:16.259Z,11.20
2024-02-19T07:11:43.494Z,11.20
2024-02-19T07:14:10.529Z,11.20
2024-02-19T07:16:37.884Z,11.20
2024-02-19T07:19:05.004Z,11.20
2024-02-19T07:21:32.132Z,11.20
2024-02-19T07:23:59.153Z,11.20
2024-02-19T07:26:26.265Z,11.20
2024-02-19T07:28:53.552Z,11.20
2024-02-19T07:31:21.036Z,11.20
2024-02-19T07:33:48.483Z,11.20
2024-02-19T07:36:16.461Z,11.20
2024-02-19T07:38:43.349Z,11.20
2024-02-19T07:41:17.273Z,11.20
2024-02-19T07:43:45.298Z,11.20
2024-02-19T07:46:13.230Z,11.20
2024-02-19T07:48:40.482Z,11.20
2024-02-19T07:51:07.956Z,11.30
2024-02-19T07:53:35.677Z,11.20
2024-02-19T07:56:07.116Z,11.20
2024-02-19T07:58:35.209Z,11.30
2024-02-19T08:01:05.574Z,11.30
2024-02-19T08:03:33.778Z,11.20
2024-02-19T08:06:01.493Z,11.30
2024-02-19T08:08:29.986Z,11.30
2024-02-19T08:10:57.032Z,11.30
2024-02-19T08:13:24.282Z,11.30
2024-02-19T08:15:51.578Z,11.30
2024-02-19T08:18:18.961Z,11.30
2024-02-19T08:20:46.308Z,11.30
2024-02-19T08:23:13.603Z,11.30
2024-02-19T08:25:40.804Z,11.30
2024-02-19T08:28:08.059Z,11.30
2024-02-19T08:30:35.227Z,11.30
2024-02-19T08:33:02.322Z,11.30
2024-02-19T08:35:29.462Z,11.30
2024-02-19T08:37:57.512Z,11.30
2024-02-19T08:40:24.744Z,11.30
2024-02-19T08:42:52.173Z,11.30
2024-02-19T08:45:22.759Z,11.30
2024-02-19T08:47:51.572Z,11.30
2024-02-19T08:50:18.612Z,11.40
2024-02-19T08:52:45.679Z,11.30
2024-02-19T08:55:12.974Z,11.40
2024-02-19T08:57:40.440Z,11.40
2024-02-19T09:00:09.841Z,11.40
2024-02-19T09:02:37.096Z,11.40
2024-02-19T09:05:04.277Z,11.40
2024-02-19T09:07:31.641Z,11.40
2024-02-19T09:09:58.947Z,11.40
2024-02-19T09:12:26.251Z,11.40
2024-02-19T09:14:53.754Z,11.50
2024-02-19T09:17:20.920Z,11.50
2024-02-19T09:19:48.001Z,11.50
2024-02-19T09:22:16.130Z,11.50
2024-02-19T09:24:45.842Z,11.50
2024-02-19T09:27:12.871Z,11.60
2024-02-19T09:29:39.975Z,11.60
2024-02-19T09:32:07.750Z,11.50
2024-02-19T09:34:35.502Z,11.60
2024-02-19T09:37:02.847Z,11.60
2024-02-19T09:39:30.066Z,11.60
2024-02-19T09:41:57.164Z,11.60
2024-02-19T09:44:24.242Z,11.60
2024-02-19T09:46:56.432Z,11.60
2024-02-19T09:49:28.261Z,11.60
2024-02-19T09:51:57.913Z,11.70
2024-02-19T09:54:26.528Z,11.60
2024-02-19T09:56:56.121Z,11.70
2024-02-19T09:59:23.811Z,11.70
2024-02-19T10:01:50.994Z,11.70
2024-02-19T10:04:18.248Z,11.70
2024-02-19T10:06:46.825Z,11.70
2024-02-19T10:09:15.499Z,11.70
2024-02-19T10:11:42.582Z,11.70
2024-02-19T10:14:11.881Z,11.70
2024-02-19T10:16:41.545Z,11.70
2024-02-19T10:19:10.566Z,11.70
2024-02-19T10:21:38.325Z,11.70
2024-02-19T10:24:06.396Z,11.80
2024-02-19T10:26:34.070Z,11.80
2024-02-19T10:29:01.219Z,11.70
2024-02-19T10:31:29.522Z,11.80
2024-02-19T10:33:56.995Z,11.80
2024-02-19T10:36:24.813Z,11.80
2024-02-19T10:38:52.807Z,11.80
2024-02-19T10:41:22.449Z,11.80
2024-02-19T10:43:50.866Z,11.80
2024-02-19T10:46:22.175Z,11.80
2024-02-19T10:48:51.218Z,11.80
2024-02-19T10:51:20.859Z,11.80
2024-02-19T10:53:48.251Z,11.80
2024-02-19T10:56:20.226Z,11.80
2024-02-19T10:58:57.573Z,11.80
2024-02-19T11:01:25.628Z,11.90
2024-02-19T11:03:52.946Z,11.90
2024-02-19T11:06:25.551Z,11.90
2024-02-19T11:08:57.471Z,11.90
2024-02-19T11:11:26.181Z,11.90
2024-02-19T11:13:53.567Z,11.90
2024-02-19T11:16:21.314Z,11.90
2024-02-19T11:18:53.235Z,11.90
2024-02-19T11:21:21.925Z,11.90
2024-02-19T11:23:48.923Z,11.90
2024-02-19T11:26:15.873Z,11.90
2024-02-19T11:28:43.691Z,11.90
2024-02-19T11:31:15.044Z,11.90
2024-02-19T11:33:42.272Z,11.90
2024-02-19T11:36:09.567Z,11.90
2024-02-19T11:38:40.317Z,11.90
2024-02-19T11:41:11.189Z,11.90
2024-02-19T11:43:42.048Z,11.90
2024-02-19T11:46:09.199Z,11.90
2024-02-19T11:48:37.575Z,11.90
2024-02-19T11:51:06.559Z,11.90
2024-02-19T11:53:33.959Z,12.00
2024-02-19T11:56:02.164Z,11.90
2024-02-19T11:58:29.971Z,11.90
2024-02-19T12:00:58.209Z,11.90
2024-02-19T12:03:26.737Z,11.90
2024-02-19T12:05:54.758Z,11.90
2024-02-19T12:08:22.047Z,11.90
2024-02-19T12:10:49.206Z,11.90
2024-02-19T12:13:17.992Z,11.90
2024-02-19T12:15:52.432Z,11.90
2024-02-19T12:18:20.084Z,11.90
2024-02-19T12:20:47.265Z,11.90
2024-02-19T12:23:15.967Z,11.90
2024-02-19T12:25:43.566Z,11.90
2024-02-19T12:28:10.955Z,11.90
2024-02-19T12:30:38.027Z,11.90
2024-02-19T12:33:05.793Z,11.90
2024-02-19T12:35:32.989Z,11.90
2024-02-19T12:38:01.218Z,11.90
2024-02-19T12:40:28.722Z,11.90
2024-02-19T12:42:56.090Z,11.90
2024-02-19T12:45:23.249Z,11.90
2024-02-19T12:47:50.573Z,11.90
2024-02-19T12:50:19.135Z,11.90
2024-02-19T12:52:46.725Z,11.90
2024-02-19T12:55:16.721Z,11.90
2024-02-19T12:57:47.752Z,11.90
2024-02-19T13:00:15.050Z,11.90
2024-02-19T13:02:42.211Z,11.90
2024-02-19T13:05:09.496Z,11.90
2024-02-19T13:07:37.080Z,11.90
2024-02-19T13:10:04.334Z,11.90
2024-02-19T13:12:32.702Z,11.90
2024-02-19T13:15:00.992Z,11.90
2024-02-19T13:17:35.734Z,11.90
2024-02-19T13:20:07.851Z,11.90
2024-02-19T13:22:34.965Z,11.90
2024-02-19T13:25:02.298Z,11.90
2024-02-19T13:27:29.410Z,11.90
2024-02-19T13:29:56.468Z,11.90
2024-02-19T13:32:24.116Z,11.90
2024-02-19T13:34:51.392Z,11.90
2024-02-19T13:37:19.658Z,11.90
2024-02-19T13:39:46.822Z,11.90
2024-02-19T13:42:14.852Z,11.90
2024-02-19T13:44:42.830Z,11.90
2024-02-19T13:47:12.284Z,11.90
2024-02-19T13:49:39.860Z,11.90
2024-02-19T13:52:09.404Z,11.90
2024-02-19T13:54:36.449Z,11.90
2024-02-19T13:57:04.880Z,11.90
2024-02-19T13:59:32.142Z,11.90
2024-02-19T14:01:59.881Z,11.90
2024-02-19T14:04:27.036Z,11.90
2024-02-19T14:06:54.696Z,11.90
2024-02-19T14:09:21.777Z,11.90
2024-02-19T14:11:49.317Z,11.90
2024-02-19T14:14:17.629Z,11.90
2024-02-19T14:16:44.934Z,11.90
2024-02-19T14:19:12.089Z,11.90
2024-02-19T14:21:39.254Z,11.90
2024-02-19T14:24:06.334Z,11.90
2024-02-19T14:26:33.327Z,11.90
2024-02-19T14:29:07.136Z,11.90
2024-02-19T14:31:34.807Z,11.90
2024-02-19T14:34:02.163Z,11.90
2024-02-19T14:36:29.307Z,11.90
2024-02-19T14:38:56.405Z,11.90
2024-02-19T14:41:23.453Z,11.90
2024-02-19T14:43:50.536Z,11.90
2024-02-19T14:46:17.971Z,11.90
2024-02-19T14:48:46.914Z,11.90
2024-02-19T14:51:17.529Z,11.90
2024-02-19T14:53:46.607Z,11.90
2024-02-19T14:56:13.794Z,11.90
2024-02-19T14:58:41.610Z,11.90
2024-02-19T15:01:08.860Z,11.90
2024-02-19T15:03:36.232Z,11.90
2024-02-19T15:06:07.689Z,11.90
2024-02-19T15:08:35.512Z,11.90
2024-02-19T15:11:03.356Z,11.80
2024-02-19T15:13:30.440Z,11.90
2024-02-19T15:15:58.023Z,11.80
2024-02-19T15:18:25.473Z,11.80
2024-02-19T15:20:53.604Z,11.90
2024-02-19T15:23:21.711Z,11.90
2024-02-19T15:25:48.849Z,11.80
2024-02-19T15:28:16.113Z,11.90
2024-02-19T15:30:44.282Z,11.90
2024-02-19T15:33:11.914Z,11.90
2024-02-19T15:35:39.078Z,11.90
2024-02-19T15:38:06.461Z,11.90
2024-02-19T15:40:34.680Z,11.90
2024-02-19T15:43:01.875Z,11.90
2024-02-19T15:45:29.104Z,11.90
2024-02-19T15:47:56.279Z,11.90
2024-02-19T15:50:23.460Z,11.90
2024-02-19T15:52:58.290Z,11.90
2024-02-19T15:55:32.216Z,11.90
2024-02-19T15:57:59.610Z,11.90
2024-02-19T16:00:26.980Z,11.90
2024-02-19T16:02:53.971Z,11.90
2024-02-19T16:05:21.210Z,11.90
2024-02-19T16:07:51.187Z,11.90
2024-02-19T16:10:18.626Z,11.90
2024-02-19T16:12:46.664Z,11.90
2024-02-19T16:15:14.538Z,11.90
2024-02-19T16:17:41.802Z,11.90
2024-02-19T16:20:09.373Z,11.90
2024-02-19T16:22:36.890Z,11.90
2024-02-19T16:25:08.307Z,11.90
2024-02-19T16:27:36.959Z,11.90
2024-02-19T16:30:06.475Z,11.90
2024-02-19T16:32:35.397Z,11.90
2024-02-19T16:35:03.066Z,11.90
2024-02-19T16:37:30.372Z,11.90
2024-02-19T16:39:57.406Z,11.90
2024-02-19T16:42:24.642Z,11.90
2024-02-19T16:44:51.686Z,11.90
2024-02-19T16:47:18.645Z,11.90
2024-02-19T16:49:46.984Z,11.90
2024-02-19T16:52:14.505Z,11.90
2024-02-19T16:54:41.523Z,11.90
2024-02-19T16:57:08.503Z,11.90
2024-02-19T16:59:36.539Z,11.90
2024-02-19T17:02:03.912Z,11.90
2024-02-19T17:04:31.101Z,11.90
2024-02-19T17:06:58.362Z,11.90
2024-02-19T17:09:25.516Z,11.80
2024-02-19T17:11:52.541Z,11.80
2024-02-19T17:14:19.480Z,11.90
2024-02-19T17:16:52.115Z,11.80
2024-02-19T17:19:21.417Z,11.80
2024-02-19T17:21:49.581Z,11.80
2024-02-19T17:24:16.799Z,11.80
2024-02-19T17:26:47.272Z,11.80
2024-02-19T17:29:14.402Z,11.80
2024-02-19T17:31:41.963Z,11.80
2024-02-19T17:34:09.151Z,11.80
2024-02-19T17:36:36.207Z,11.80
2024-02-19T17:39:05.199Z,11.80
2024-02-19T17:41:33.456Z,11.80
2024-02-19T17:44:00.724Z,11.80
2024-02-19T17:46:29.293Z,11.80
2024-02-19T17:48:56.549Z,11.80
2024-02-19T17:51:23.716Z,11.70
2024-02-19T17:53:50.766Z,11.70
2024-02-19T17:56:19.946Z,11.70
2024-02-19T17:58:47.327Z,11.70
2024-02-19T18:01:14.935Z,11.70
2024-02-19T18:03:42.089Z,11.70
2024-02-19T18:06:09.631Z,11.70
2024-02-19T18:08:37.647Z,11.70
2024-02-19T18:11:09.046Z,11.60
2024-02-19T18:13:36.618Z,11.60
2024-02-19T18:16:04.338Z,11.70
2024-02-19T18:18:31.672Z,11.70
2024-02-19T18:21:00.615Z,11.60
2024-02-19T18:23:31.037Z,11.60
2024-02-19T18:25:58.083Z,11.60
2024-02-19T18:28:26.035Z,11.60
2024-02-19T18:30:53.950Z,11.60
2024-02-19T18:33:23.317Z,11.60
2024-02-19T18:35:51.276Z,11.60
2024-02-19T18:38:19.145Z,11.50
2024-02-19T18:40:46.362Z,11.50
2024-02-19T18:43:14.108Z,11.50
2024-02-19T18:45:44.192Z,11.50
2024-02-19T18:48:11.391Z,11.50
2024-02-19T18:50:39.133Z,11.50
2024-02-19T18:53:06.590Z,11.50
2024-02-19T18:55:33.659Z,11.50
2024-02-19T18:58:02.279Z,11.50
2024-02-19T19:00:29.979Z,11.50
2024-02-19T19:02:59.722Z,11.50
2024-02-19T19:05:27.256Z,11.50
2024-02-19T19:07:55.786Z,11.50
2024-02-19T19:10:24.324Z,11.40
2024-02-19T19:12:51.488Z,11.50
2024-02-19T19:15:18.866Z,11.40
2024-02-19T19:17:46.876Z,11.40
2024-02-19T19:20:14.155Z,11.50
2024-02-19T19:22:41.546Z,11.40
2024-02-19T19:25:09.315Z,11.40
2024-02-19T19:27:36.319Z,11.40
2024-02-19T19:30:03.639Z,11.40
2024-02-19T19:32:31.516Z,11.40
2024-02-19T19:34:58.645Z,11.40
2024-02-19T19:37:26.303Z,11.40
2024-02-19T19:39:53.515Z,11.40
2024-02-19T19:42:25.312Z,11.40
2024-02-19T19:44:53.378Z,11.40
2024-02-19T19:47:20.422Z,11.40
2024-02-19T19:49:47.486Z,11.40
2024-02-19T19:52:17.568Z,11.40
2024-02-19T19:54:47.302Z,11.40
2024-02-19T19:57:14.498Z,11.40
2024-02-19T19:59:49.825Z,11.40
2024-02-19T20:02:17.395Z,11.40
2024-02-19T20:04:53.645Z,11.40
2024-02-19T20:07:21.065Z,11.40
2024-02-19T20:09:48.169Z,11.40
2024-02-19T20:12:15.522Z,11.40
2024-02-19T20:14:42.418Z,11.40
2024-02-19T20:17:10.176Z,11.40
2024-02-19T20:19:37.239Z,11.30
2024-02-19T20:22:04.871Z,11.30
2024-02-19T20:24:32.139Z,11.30
2024-02-19T20:27:02.272Z,11.30
2024-02-19T20:29:29.317Z,11.30
2024-02-19T20:31:58.657Z,11.30
2024-02-19T20:34:27.971Z,11.30
2024-02-19T20:36:55.326Z,11.30
2024-02-19T20:39:22.769Z,11.30
2024-02-19T20:41:56.264Z,11.30
2024-02-19T20:44:23.517Z,11.30
2024-02-19T20:46:50.641Z,11.30
2024-02-19T20:49:17.831Z,11.30
2024-02-19T20:51:46.190Z,11.30
2024-02-19T20:54:13.235Z,11.30
2024-02-19T20:56:44.021Z,11.30
2024-02-19T20:59:11.080Z,11.30
2024-02-19T21:01:39.376Z,11.30
2024-02-19T21:04:08.632Z,11.20
2024-02-19T21:06:35.907Z,11.30
2024-02-19T21:09:03.600Z,11.20
2024-02-19T21:11:32.750Z,11.20
2024-02-19T21:14:01.397Z,11.20
2024-02-19T21:16:28.348Z,11.20
2024-02-19T21:18:55.707Z,11.20
2024-02-19T21:21:30.337Z,11.20
2024-02-19T21:24:02.910Z,11.20
2024-02-19T21:26:32.120Z,11.20
2024-02-19T21:28:59.751Z,11.20
2024-02-19T21:31:27.610Z,11.20
2024-02-19T21:33:55.086Z,11.20
2024-02-19T21:36:22.302Z,11.20
2024-02-19T21:38:50.785Z,11.20
2024-02-19T21:41:18.273Z,11.20
2024-02-19T21:43:45.548Z,11.20
2024-02-19T21:46:13.409Z,11.20
2024-02-19T21:48:41.484Z,11.20
2024-02-19T21:51:09.257Z,11.20
2024-02-19T21:53:36.352Z,11.10
2024-02-19T21:56:04.441Z,11.10
2024-02-19T21:58:31.409Z,11.10
2024-02-19T22:00:58.594Z,11.10
2024-02-19T22:03:25.856Z,11.10
2024-02-19T22:05:52.910Z,11.10
2024-02-19T22:08:19.864Z,11.10
2024-02-19T22:10:47.376Z,11.10
2024-02-19T22:13:14.573Z,11.10
2024-02-19T22:15:42.000Z,11.10
2024-02-19T22:18:09.501Z,11.10
2024-02-19T22:20:36.793Z,11.10
2024-02-19T22:23:03.997Z,11.10
2024-02-19T22:25:32.427Z,11.00
2024-02-19T22:28:01.317Z,11.10
2024-02-19T22:30:28.652Z,11.00
2024-02-19T22:32:56.217Z,11.00
2024-02-19T22:35:23.452Z,11.00
2024-02-19T22:37:51.508Z,11.00
2024-02-19T22:40:19.186Z,11.00
2024-02-19T22:42:46.316Z,11.00
2024-02-19T22:45:13.556Z,11.00
2024-02-19T22:47:40.765Z,11.00
2024-02-19T22:50:09.015Z,11.00
2024-02-19T22:52:38.892Z,11.00
2024-02-19T22:55:07.879Z,11.00
2024-02-19T22:57:35.863Z,11.00
2024-02-19T23:00:23.026Z,10.90
2024-02-19T23:02:50.334Z,10.90
2024-02-19T23:05:18.346Z,10.90
2024-02-19T23:07:46.138Z,10.90
2024-02-19T23:10:13.987Z,10.90
2024-02-19T23:12:41.719Z,10.90
2024-02-19T23:15:09.547Z,10.90
2024-02-19T23:17:36.767Z,10.90
2024-02-19T23:20:04.665Z,10.90
2024-02-19T23:22:31.733Z,10.90
2024-02-19T23:24:58.882Z,10.90
2024-02-19T23:27:25.965Z,10.80
2024-02-19T23:29:53.317Z,10.90
2024-02-19T23:32:20.320Z,10.80
2024-02-19T23:34:47.441Z,10.80
2024-02-19T23:37:14.585Z,10.80
2024-02-19T23:39:41.860Z,10.80
2024-02-19T23:42:10.517Z,10.80
2024-02-19T23:44:37.648Z,10.80
2024-02-19T23:47:05.920Z,10.80
2024-02-19T23:49:33.614Z,10.80
2024-02-19T23:52:01.279Z,10.80
2024-02-19T23:54:31.058Z,10.70
2024-02-19T23:57:00.976Z,10.70
2024-02-19T23:59:28.027Z,10.70
